sensor_id;sensor_type;location;lat;lon;timestamp;P1;durP1;ratioP1;P2;durP2;ratioP2
50781;SDS011;36749;37.428;-121.972;2022-07-10T00:01:16;7.68;;;2.85;;
50781;SDS011;36749;37.428;-121.972;2022-07-10T00:03:42;9.82;;;2.88;;
50781;SDS011;36749;37.428;-121.972;2022-07-10T00:06:09;5.60;;;3.00;;
50781;SDS011;36749;37.428;-121.972;2022-07-10T00:08:35;9.68;;;2.97;;
50781;SDS011;36749;37.428;-121.972;2022-07-10T00:11:02;6.72;;;3.00;;
50781;SDS011;36749;37.428;-121.972;2022-07-10T00:13:28;9.35;;;3.00;;
50781;SDS011;36749;37.428;-121.972;2022-07-10T00:15:54;10.52;;;3.45;;
50781;SDS011;36749;37.428;-121.972;2022-07-10T00:18:20;7.28;;;2.90;;
50781;SDS011;36749;37.428;-121.972;2022-07-10T00:20:46;6.45;;;3.05;;
50781;SDS011;36749;37.428;-121.972;2022-07-10T00:23:12;6.85;;;2.90;;
50781;SDS011;36749;37.428;-121.972;2022-07-10T00:25:38;10.38;;;3.42;;
50781;SDS011;36749;37.428;-121.972;2022-07-10T00:28:04;13.30;;;4.75;;
50781;SDS011;36749;37.428;-121.972;2022-07-10T00:30:30;16.25;;;5.60;;
50781;SDS011;36749;37.428;-121.972;2022-07-10T00:32:56;10.13;;;4.32;;
50781;SDS011;36749;37.428;-121.972;2022-07-10T00:35:24;14.35;;;3.88;;
50781;SDS011;36749;37.428;-121.972;2022-07-10T00:37:51;12.88;;;3.45;;
50781;SDS011;36749;37.428;-121.972;2022-07-10T00:40:17;7.13;;;2.90;;
50781;SDS011;36749;37.428;-121.972;2022-07-10T00:42:43;11.38;;;2.90;;
50781;SDS011;36749;37.428;-121.972;2022-07-10T00:45:09;13.82;;;3.67;;
50781;SDS011;36749;37.428;-121.972;2022-07-10T00:47:35;13.23;;;4.10;;
50781;SDS011;36749;37.428;-121.972;2022-07-10T00:50:02;10.88;;;3.35;;
50781;SDS011;36749;37.428;-121.972;2022-07-10T00:52:29;8.65;;;3.08;;
50781;SDS011;36749;37.428;-121.972;2022-07-10T00:54:55;12.07;;;3.38;;
50781;SDS011;36749;37.428;-121.972;2022-07-10T00:57:22;6.57;;;2.72;;
50781;SDS011;36749;37.428;-121.972;2022-07-10T00:59:48;8.40;;;3.08;;
50781;SDS011;36749;37.428;-121.972;2022-07-10T01:02:15;8.63;;;3.80;;
50781;SDS011;36749;37.428;-121.972;2022-07-10T01:04:42;9.68;;;3.28;;
50781;SDS011;36749;37.428;-121.972;2022-07-10T01:07:08;6.55;;;3.20;;
50781;SDS011;36749;37.428;-121.972;2022-07-10T01:09:34;11.70;;;3.90;;
50781;SDS011;36749;37.428;-121.972;2022-07-10T01:12:01;11.38;;;3.28;;
50781;SDS011;36749;37.428;-121.972;2022-07-10T01:14:28;13.88;;;4.00;;
50781;SDS011;36749;37.428;-121.972;2022-07-10T01:16:55;14.65;;;4.53;;
50781;SDS011;36749;37.428;-121.972;2022-07-10T01:19:24;18.08;;;3.70;;
50781;SDS011;36749;37.428;-121.972;2022-07-10T01:21:50;12.43;;;3.40;;
50781;SDS011;36749;37.428;-121.972;2022-07-10T01:24:17;10.50;;;3.42;;
50781;SDS011;36749;37.428;-121.972;2022-07-10T01:26:43;14.45;;;4.03;;
50781;SDS011;36749;37.428;-121.972;2022-07-10T01:29:10;8.73;;;2.90;;
50781;SDS011;36749;37.428;-121.972;2022-07-10T01:31:36;13.00;;;3.05;;
50781;SDS011;36749;37.428;-121.972;2022-07-10T01:34:04;18.63;;;4.00;;
50781;SDS011;36749;37.428;-121.972;2022-07-10T01:36:32;17.17;;;3.42;;
50781;SDS011;36749;37.428;-121.972;2022-07-10T01:38:59;16.35;;;4.20;;
50781;SDS011;36749;37.428;-121.972;2022-07-10T01:41:26;10.13;;;3.38;;
50781;SDS011;36749;37.428;-121.972;2022-07-10T01:43:52;14.48;;;3.15;;
50781;SDS011;36749;37.428;-121.972;2022-07-10T01:46:18;30.27;;;5.32;;
50781;SDS011;36749;37.428;-121.972;2022-07-10T01:48:45;17.05;;;3.70;;
50781;SDS011;36749;37.428;-121.972;2022-07-10T01:51:11;18.20;;;3.63;;
50781;SDS011;36749;37.428;-121.972;2022-07-10T01:53:39;18.40;;;4.45;;
50781;SDS011;36749;37.428;-121.972;2022-07-10T01:56:06;12.95;;;3.25;;
50781;SDS011;36749;37.428;-121.972;2022-07-10T01:58:33;11.50;;;3.55;;
50781;SDS011;36749;37.428;-121.972;2022-07-10T02:01:01;10.93;;;3.65;;
50781;SDS011;36749;37.428;-121.972;2022-07-10T02:03:27;13.00;;;2.75;;
50781;SDS011;36749;37.428;-121.972;2022-07-10T02:06:12;17.70;;;3.38;;
50781;SDS011;36749;37.428;-121.972;2022-07-10T02:08:38;12.18;;;2.90;;
50781;SDS011;36749;37.428;-121.972;2022-07-10T02:11:04;9.32;;;2.72;;
50781;SDS011;36749;37.428;-121.972;2022-07-10T02:13:31;9.98;;;2.65;;
50781;SDS011;36749;37.428;-121.972;2022-07-10T02:15:57;11.80;;;3.08;;
50781;SDS011;36749;37.428;-121.972;2022-07-10T02:18:23;10.90;;;3.03;;
50781;SDS011;36749;37.428;-121.972;2022-07-10T02:20:50;12.77;;;3.33;;
50781;SDS011;36749;37.428;-121.972;2022-07-10T02:23:17;16.48;;;3.35;;
50781;SDS011;36749;37.428;-121.972;2022-07-10T02:25:43;14.65;;;2.90;;
50781;SDS011;36749;37.428;-121.972;2022-07-10T02:28:09;18.08;;;3.47;;
50781;SDS011;36749;37.428;-121.972;2022-07-10T02:30:36;9.45;;;3.05;;
50781;SDS011;36749;37.428;-121.972;2022-07-10T02:33:02;9.40;;;3.30;;
50781;SDS011;36749;37.428;-121.972;2022-07-10T02:35:28;19.75;;;3.45;;
50781;SDS011;36749;37.428;-121.972;2022-07-10T02:37:54;15.68;;;3.50;;
50781;SDS011;36749;37.428;-121.972;2022-07-10T02:40:21;11.30;;;3.45;;
50781;SDS011;36749;37.428;-121.972;2022-07-10T02:42:47;14.75;;;3.85;;
50781;SDS011;36749;37.428;-121.972;2022-07-10T02:45:13;14.50;;;3.70;;
50781;SDS011;36749;37.428;-121.972;2022-07-10T02:47:39;10.10;;;3.15;;
50781;SDS011;36749;37.428;-121.972;2022-07-10T02:50:05;11.48;;;3.17;;
50781;SDS011;36749;37.428;-121.972;2022-07-10T02:52:32;10.73;;;3.25;;
50781;SDS011;36749;37.428;-121.972;2022-07-10T02:54:58;11.77;;;3.20;;
50781;SDS011;36749;37.428;-121.972;2022-07-10T02:57:24;10.43;;;2.83;;
50781;SDS011;36749;37.428;-121.972;2022-07-10T02:59:51;14.07;;;3.60;;
50781;SDS011;36749;37.428;-121.972;2022-07-10T03:02:17;12.18;;;3.70;;
50781;SDS011;36749;37.428;-121.972;2022-07-10T03:04:43;13.25;;;3.75;;
50781;SDS011;36749;37.428;-121.972;2022-07-10T03:07:09;13.95;;;3.88;;
50781;SDS011;36749;37.428;-121.972;2022-07-10T03:09:35;9.02;;;3.22;;
50781;SDS011;36749;37.428;-121.972;2022-07-10T03:12:01;13.35;;;3.75;;
50781;SDS011;36749;37.428;-121.972;2022-07-10T03:14:28;13.85;;;3.40;;
50781;SDS011;36749;37.428;-121.972;2022-07-10T03:16:54;15.75;;;4.32;;
50781;SDS011;36749;37.428;-121.972;2022-07-10T03:19:20;14.00;;;4.22;;
50781;SDS011;36749;37.428;-121.972;2022-07-10T03:21:46;13.68;;;3.83;;
50781;SDS011;36749;37.428;-121.972;2022-07-10T03:24:12;11.35;;;4.00;;
50781;SDS011;36749;37.428;-121.972;2022-07-10T03:26:38;16.83;;;4.20;;
50781;SDS011;36749;37.428;-121.972;2022-07-10T03:29:04;13.15;;;4.10;;
50781;SDS011;36749;37.428;-121.972;2022-07-10T03:31:31;13.70;;;3.33;;
50781;SDS011;36749;37.428;-121.972;2022-07-10T03:33:57;14.65;;;3.90;;
50781;SDS011;36749;37.428;-121.972;2022-07-10T03:36:23;21.40;;;4.25;;
50781;SDS011;36749;37.428;-121.972;2022-07-10T03:38:49;13.23;;;3.22;;
50781;SDS011;36749;37.428;-121.972;2022-07-10T03:41:15;12.85;;;3.88;;
50781;SDS011;36749;37.428;-121.972;2022-07-10T03:43:41;11.43;;;3.67;;
50781;SDS011;36749;37.428;-121.972;2022-07-10T03:46:07;14.00;;;4.25;;
50781;SDS011;36749;37.428;-121.972;2022-07-10T03:48:33;20.88;;;9.65;;
50781;SDS011;36749;37.428;-121.972;2022-07-10T03:51:00;14.80;;;4.50;;
50781;SDS011;36749;37.428;-121.972;2022-07-10T03:53:26;15.65;;;4.20;;
50781;SDS011;36749;37.428;-121.972;2022-07-10T03:55:53;12.32;;;3.60;;
50781;SDS011;36749;37.428;-121.972;2022-07-10T03:58:19;12.00;;;3.85;;
50781;SDS011;36749;37.428;-121.972;2022-07-10T04:00:46;15.70;;;4.65;;
50781;SDS011;36749;37.428;-121.972;2022-07-10T04:03:12;17.95;;;4.43;;
50781;SDS011;36749;37.428;-121.972;2022-07-10T04:05:39;8.52;;;3.17;;
50781;SDS011;36749;37.428;-121.972;2022-07-10T04:08:05;12.30;;;3.58;;
50781;SDS011;36749;37.428;-121.972;2022-07-10T04:10:31;24.20;;;8.65;;
50781;SDS011;36749;37.428;-121.972;2022-07-10T04:12:58;14.38;;;3.60;;
50781;SDS011;36749;37.428;-121.972;2022-07-10T04:15:24;21.92;;;5.55;;
50781;SDS011;36749;37.428;-121.972;2022-07-10T04:17:51;15.25;;;4.80;;
50781;SDS011;36749;37.428;-121.972;2022-07-10T04:20:18;13.35;;;3.90;;
50781;SDS011;36749;37.428;-121.972;2022-07-10T04:22:45;15.93;;;4.07;;
50781;SDS011;36749;37.428;-121.972;2022-07-10T04:25:11;11.68;;;4.28;;
50781;SDS011;36749;37.428;-121.972;2022-07-10T04:27:37;14.13;;;4.65;;
50781;SDS011;36749;37.428;-121.972;2022-07-10T04:30:04;17.40;;;3.80;;
50781;SDS011;36749;37.428;-121.972;2022-07-10T04:32:31;19.98;;;4.95;;
50781;SDS011;36749;37.428;-121.972;2022-07-10T04:34:57;21.63;;;4.70;;
50781;SDS011;36749;37.428;-121.972;2022-07-10T04:37:24;15.80;;;3.63;;
50781;SDS011;36749;37.428;-121.972;2022-07-10T04:39:50;19.95;;;5.45;;
50781;SDS011;36749;37.428;-121.972;2022-07-10T04:42:16;10.10;;;3.28;;
50781;SDS011;36749;37.428;-121.972;2022-07-10T04:44:42;13.13;;;4.15;;
50781;SDS011;36749;37.428;-121.972;2022-07-10T04:47:08;15.43;;;4.40;;
50781;SDS011;36749;37.428;-121.972;2022-07-10T04:49:34;13.98;;;3.75;;
50781;SDS011;36749;37.428;-121.972;2022-07-10T04:52:00;10.57;;;3.72;;
50781;SDS011;36749;37.428;-121.972;2022-07-10T04:54:27;15.80;;;3.70;;
50781;SDS011;36749;37.428;-121.972;2022-07-10T04:56:53;15.32;;;4.10;;
50781;SDS011;36749;37.428;-121.972;2022-07-10T04:59:19;17.35;;;3.97;;
50781;SDS011;36749;37.428;-121.972;2022-07-10T05:01:45;14.07;;;4.07;;
50781;SDS011;36749;37.428;-121.972;2022-07-10T05:04:11;13.13;;;4.25;;
50781;SDS011;36749;37.428;-121.972;2022-07-10T05:06:38;17.27;;;4.20;;
50781;SDS011;36749;37.428;-121.972;2022-07-10T05:09:04;13.50;;;4.40;;
50781;SDS011;36749;37.428;-121.972;2022-07-10T05:11:30;17.13;;;4.30;;
50781;SDS011;36749;37.428;-121.972;2022-07-10T05:13:57;13.63;;;4.00;;
50781;SDS011;36749;37.428;-121.972;2022-07-10T05:16:23;17.02;;;4.88;;
50781;SDS011;36749;37.428;-121.972;2022-07-10T05:18:49;14.45;;;4.22;;
50781;SDS011;36749;37.428;-121.972;2022-07-10T05:21:15;18.98;;;4.65;;
50781;SDS011;36749;37.428;-121.972;2022-07-10T05:23:42;16.50;;;4.15;;
50781;SDS011;36749;37.428;-121.972;2022-07-10T05:26:08;14.80;;;4.05;;
50781;SDS011;36749;37.428;-121.972;2022-07-10T05:28:34;17.08;;;4.32;;
50781;SDS011;36749;37.428;-121.972;2022-07-10T05:31:01;14.32;;;3.75;;
50781;SDS011;36749;37.428;-121.972;2022-07-10T05:33:27;17.92;;;5.20;;
50781;SDS011;36749;37.428;-121.972;2022-07-10T05:35:54;9.00;;;3.83;;
50781;SDS011;36749;37.428;-121.972;2022-07-10T05:38:20;10.98;;;4.03;;
50781;SDS011;36749;37.428;-121.972;2022-07-10T05:40:47;13.80;;;3.63;;
50781;SDS011;36749;37.428;-121.972;2022-07-10T05:43:14;15.40;;;4.60;;
50781;SDS011;36749;37.428;-121.972;2022-07-10T05:45:40;17.17;;;4.35;;
50781;SDS011;36749;37.428;-121.972;2022-07-10T05:48:06;15.25;;;4.20;;
50781;SDS011;36749;37.428;-121.972;2022-07-10T05:50:32;11.95;;;4.25;;
50781;SDS011;36749;37.428;-121.972;2022-07-10T05:52:58;16.08;;;4.30;;
50781;SDS011;36749;37.428;-121.972;2022-07-10T05:55:24;13.98;;;3.90;;
50781;SDS011;36749;37.428;-121.972;2022-07-10T05:57:51;18.90;;;4.70;;
50781;SDS011;36749;37.428;-121.972;2022-07-10T06:00:17;15.00;;;4.32;;
50781;SDS011;36749;37.428;-121.972;2022-07-10T06:02:43;18.80;;;4.80;;
50781;SDS011;36749;37.428;-121.972;2022-07-10T06:05:09;18.15;;;4.55;;
50781;SDS011;36749;37.428;-121.972;2022-07-10T06:07:35;12.90;;;4.10;;
50781;SDS011;36749;37.428;-121.972;2022-07-10T06:10:05;11.63;;;3.55;;
50781;SDS011;36749;37.428;-121.972;2022-07-10T06:12:31;19.13;;;4.35;;
50781;SDS011;36749;37.428;-121.972;2022-07-10T06:14:58;14.95;;;3.97;;
50781;SDS011;36749;37.428;-121.972;2022-07-10T06:17:24;16.42;;;4.53;;
50781;SDS011;36749;37.428;-121.972;2022-07-10T06:19:50;14.82;;;4.18;;
50781;SDS011;36749;37.428;-121.972;2022-07-10T06:22:16;18.80;;;5.07;;
50781;SDS011;36749;37.428;-121.972;2022-07-10T06:24:58;18.15;;;4.32;;
50781;SDS011;36749;37.428;-121.972;2022-07-10T06:27:31;13.60;;;4.35;;
50781;SDS011;36749;37.428;-121.972;2022-07-10T06:29:57;17.63;;;4.80;;
50781;SDS011;36749;37.428;-121.972;2022-07-10T06:32:24;13.98;;;4.32;;
50781;SDS011;36749;37.428;-121.972;2022-07-10T06:34:51;13.68;;;4.53;;
50781;SDS011;36749;37.428;-121.972;2022-07-10T06:37:18;15.00;;;4.30;;
50781;SDS011;36749;37.428;-121.972;2022-07-10T06:39:45;16.30;;;4.88;;
50781;SDS011;36749;37.428;-121.972;2022-07-10T06:42:14;15.15;;;4.70;;
50781;SDS011;36749;37.428;-121.972;2022-07-10T06:44:44;17.75;;;4.53;;
50781;SDS011;36749;37.428;-121.972;2022-07-10T06:47:11;16.15;;;4.70;;
50781;SDS011;36749;37.428;-121.972;2022-07-10T06:49:57;18.58;;;4.90;;
50781;SDS011;36749;37.428;-121.972;2022-07-10T06:52:23;16.33;;;4.90;;
50781;SDS011;36749;37.428;-121.972;2022-07-10T06:54:49;19.38;;;6.35;;
50781;SDS011;36749;37.428;-121.972;2022-07-10T06:57:16;16.73;;;5.45;;
50781;SDS011;36749;37.428;-121.972;2022-07-10T06:59:43;22.63;;;5.88;;
50781;SDS011;36749;37.428;-121.972;2022-07-10T07:02:09;19.52;;;6.40;;
50781;SDS011;36749;37.428;-121.972;2022-07-10T07:04:36;17.42;;;5.80;;
50781;SDS011;36749;37.428;-121.972;2022-07-10T07:07:02;20.38;;;5.78;;
50781;SDS011;36749;37.428;-121.972;2022-07-10T07:09:29;19.50;;;5.60;;
50781;SDS011;36749;37.428;-121.972;2022-07-10T07:11:55;21.23;;;5.65;;
50781;SDS011;36749;37.428;-121.972;2022-07-10T07:14:21;17.98;;;5.25;;
50781;SDS011;36749;37.428;-121.972;2022-07-10T07:16:47;23.70;;;5.22;;
50781;SDS011;36749;37.428;-121.972;2022-07-10T07:19:24;19.02;;;5.65;;
50781;SDS011;36749;37.428;-121.972;2022-07-10T07:21:57;23.50;;;5.60;;
50781;SDS011;36749;37.428;-121.972;2022-07-10T07:24:42;23.65;;;6.35;;
50781;SDS011;36749;37.428;-121.972;2022-07-10T07:27:10;21.77;;;6.43;;
50781;SDS011;36749;37.428;-121.972;2022-07-10T07:29:36;23.40;;;5.63;;
50781;SDS011;36749;37.428;-121.972;2022-07-10T07:32:03;27.13;;;6.88;;
50781;SDS011;36749;37.428;-121.972;2022-07-10T07:34:30;16.10;;;5.28;;
50781;SDS011;36749;37.428;-121.972;2022-07-10T07:36:56;20.50;;;6.38;;
50781;SDS011;36749;37.428;-121.972;2022-07-10T07:39:23;16.98;;;5.97;;
50781;SDS011;36749;37.428;-121.972;2022-07-10T07:41:49;20.05;;;6.05;;
50781;SDS011;36749;37.428;-121.972;2022-07-10T07:44:15;22.10;;;6.68;;
50781;SDS011;36749;37.428;-121.972;2022-07-10T07:46:43;22.45;;;7.35;;
50781;SDS011;36749;37.428;-121.972;2022-07-10T07:49:09;18.42;;;5.40;;
50781;SDS011;36749;37.428;-121.972;2022-07-10T07:51:36;21.27;;;6.85;;
50781;SDS011;36749;37.428;-121.972;2022-07-10T07:54:02;22.52;;;6.57;;
50781;SDS011;36749;37.428;-121.972;2022-07-10T07:56:28;19.80;;;6.32;;
50781;SDS011;36749;37.428;-121.972;2022-07-10T07:58:54;22.48;;;6.30;;
50781;SDS011;36749;37.428;-121.972;2022-07-10T08:01:21;20.73;;;6.15;;
50781;SDS011;36749;37.428;-121.972;2022-07-10T08:03:47;18.20;;;6.18;;
50781;SDS011;36749;37.428;-121.972;2022-07-10T08:06:14;19.65;;;6.72;;
50781;SDS011;36749;37.428;-121.972;2022-07-10T08:08:40;21.23;;;6.43;;
50781;SDS011;36749;37.428;-121.972;2022-07-10T08:11:06;21.27;;;6.72;;
50781;SDS011;36749;37.428;-121.972;2022-07-10T08:13:32;17.40;;;5.93;;
50781;SDS011;36749;37.428;-121.972;2022-07-10T08:15:59;20.88;;;6.00;;
50781;SDS011;36749;37.428;-121.972;2022-07-10T08:18:25;17.80;;;5.35;;
50781;SDS011;36749;37.428;-121.972;2022-07-10T08:20:51;21.73;;;5.05;;
50781;SDS011;36749;37.428;-121.972;2022-07-10T08:23:17;21.67;;;6.40;;
50781;SDS011;36749;37.428;-121.972;2022-07-10T08:25:43;18.80;;;6.00;;
50781;SDS011;36749;37.428;-121.972;2022-07-10T08:28:09;26.67;;;7.10;;
50781;SDS011;36749;37.428;-121.972;2022-07-10T08:30:37;18.55;;;5.38;;
50781;SDS011;36749;37.428;-121.972;2022-07-10T08:33:03;16.83;;;6.10;;
50781;SDS011;36749;37.428;-121.972;2022-07-10T08:35:30;20.23;;;6.60;;
50781;SDS011;36749;37.428;-121.972;2022-07-10T08:37:56;23.35;;;7.00;;
50781;SDS011;36749;37.428;-121.972;2022-07-10T08:40:22;26.92;;;7.65;;
50781;SDS011;36749;37.428;-121.972;2022-07-10T08:42:49;23.23;;;6.93;;
50781;SDS011;36749;37.428;-121.972;2022-07-10T08:45:15;19.42;;;6.72;;
50781;SDS011;36749;37.428;-121.972;2022-07-10T08:47:41;16.23;;;6.82;;
50781;SDS011;36749;37.428;-121.972;2022-07-10T08:50:16;19.20;;;6.72;;
50781;SDS011;36749;37.428;-121.972;2022-07-10T08:52:48;19.45;;;6.25;;
50781;SDS011;36749;37.428;-121.972;2022-07-10T08:55:25;22.38;;;6.78;;
50781;SDS011;36749;37.428;-121.972;2022-07-10T08:57:51;23.63;;;7.32;;
50781;SDS011;36749;37.428;-121.972;2022-07-10T09:00:17;18.92;;;6.60;;
50781;SDS011;36749;37.428;-121.972;2022-07-10T09:02:44;25.67;;;7.25;;
50781;SDS011;36749;37.428;-121.972;2022-07-10T09:05:10;19.17;;;6.15;;
50781;SDS011;36749;37.428;-121.972;2022-07-10T09:07:36;26.63;;;7.75;;
50781;SDS011;36749;37.428;-121.972;2022-07-10T09:10:09;18.10;;;6.25;;
50781;SDS011;36749;37.428;-121.972;2022-07-10T09:12:56;22.52;;;7.75;;
50781;SDS011;36749;37.428;-121.972;2022-07-10T09:15:27;24.50;;;7.00;;
50781;SDS011;36749;37.428;-121.972;2022-07-10T09:18:03;19.98;;;7.22;;
50781;SDS011;36749;37.428;-121.972;2022-07-10T09:20:34;19.25;;;6.78;;
50781;SDS011;36749;37.428;-121.972;2022-07-10T09:23:20;20.52;;;6.22;;
50781;SDS011;36749;37.428;-121.972;2022-07-10T09:25:51;21.80;;;5.85;;
50781;SDS011;36749;37.428;-121.972;2022-07-10T09:28:19;22.10;;;6.47;;
50781;SDS011;36749;37.428;-121.972;2022-07-10T09:30:46;20.58;;;6.47;;
50781;SDS011;36749;37.428;-121.972;2022-07-10T09:33:23;13.95;;;5.60;;
50781;SDS011;36749;37.428;-121.972;2022-07-10T09:35:57;20.80;;;6.63;;
50781;SDS011;36749;37.428;-121.972;2022-07-10T09:41:12;18.88;;;6.88;;
50781;SDS011;36749;37.428;-121.972;2022-07-10T09:43:45;19.83;;;6.53;;
50781;SDS011;36749;37.428;-121.972;2022-07-10T09:46:12;16.20;;;5.47;;
50781;SDS011;36749;37.428;-121.972;2022-07-10T09:48:38;17.42;;;6.18;;
50781;SDS011;36749;37.428;-121.972;2022-07-10T09:51:08;19.65;;;5.95;;
50781;SDS011;36749;37.428;-121.972;2022-07-10T09:53:42;20.38;;;7.88;;
50781;SDS011;36749;37.428;-121.972;2022-07-10T09:58:37;15.70;;;6.30;;
50781;SDS011;36749;37.428;-121.972;2022-07-10T10:01:04;18.70;;;7.15;;
50781;SDS011;36749;37.428;-121.972;2022-07-10T10:03:35;17.63;;;6.25;;
50781;SDS011;36749;37.428;-121.972;2022-07-10T10:06:22;22.05;;;6.50;;
50781;SDS011;36749;37.428;-121.972;2022-07-10T10:08:58;22.02;;;6.57;;
50781;SDS011;36749;37.428;-121.972;2022-07-10T10:11:36;18.58;;;6.28;;
50781;SDS011;36749;37.428;-121.972;2022-07-10T10:14:03;15.15;;;5.45;;
50781;SDS011;36749;37.428;-121.972;2022-07-10T10:16:33;17.60;;;5.85;;
50781;SDS011;36749;37.428;-121.972;2022-07-10T10:18:59;13.80;;;6.18;;
50781;SDS011;36749;37.428;-121.972;2022-07-10T10:21:45;18.42;;;6.28;;
50781;SDS011;36749;37.428;-121.972;2022-07-10T10:24:12;13.95;;;5.50;;
50781;SDS011;36749;37.428;-121.972;2022-07-10T10:26:38;15.65;;;6.05;;
50781;SDS011;36749;37.428;-121.972;2022-07-10T10:29:05;13.45;;;5.43;;
50781;SDS011;36749;37.428;-121.972;2022-07-10T10:31:32;15.07;;;6.63;;
50781;SDS011;36749;37.428;-121.972;2022-07-10T10:33:58;15.63;;;6.47;;
50781;SDS011;36749;37.428;-121.972;2022-07-10T10:39:11;14.25;;;5.82;;
50781;SDS011;36749;37.428;-121.972;2022-07-10T10:49:16;13.60;;;5.13;;
50781;SDS011;36749;37.428;-121.972;2022-07-10T10:51:57;14.30;;;6.03;;
50781;SDS011;36749;37.428;-121.972;2022-07-10T10:54:24;15.60;;;5.38;;
50781;SDS011;36749;37.428;-121.972;2022-07-10T11:02:24;11.73;;;5.30;;
50781;SDS011;36749;37.428;-121.972;2022-07-10T11:04:50;17.35;;;6.05;;
50781;SDS011;36749;37.428;-121.972;2022-07-10T11:10:26;17.92;;;5.75;;
50781;SDS011;36749;37.428;-121.972;2022-07-10T11:15:32;18.95;;;6.28;;
50781;SDS011;36749;37.428;-121.972;2022-07-10T11:18:07;18.75;;;6.10;;
50781;SDS011;36749;37.428;-121.972;2022-07-10T11:20:41;18.95;;;5.93;;
50781;SDS011;36749;37.428;-121.972;2022-07-10T11:23:27;19.52;;;6.43;;
50781;SDS011;36749;37.428;-121.972;2022-07-10T11:29:03;19.35;;;6.60;;
50781;SDS011;36749;37.428;-121.972;2022-07-10T11:31:32;15.05;;;6.40;;
50781;SDS011;36749;37.428;-121.972;2022-07-10T11:34:12;15.35;;;6.22;;
50781;SDS011;36749;37.428;-121.972;2022-07-10T11:36:39;17.35;;;5.63;;
50781;SDS011;36749;37.428;-121.972;2022-07-10T11:39:06;17.85;;;5.63;;
50781;SDS011;36749;37.428;-121.972;2022-07-10T11:41:34;15.85;;;6.47;;
50781;SDS011;36749;37.428;-121.972;2022-07-10T11:44:12;17.67;;;5.88;;
50781;SDS011;36749;37.428;-121.972;2022-07-10T11:46:42;20.08;;;6.22;;
50781;SDS011;36749;37.428;-121.972;2022-07-10T11:49:14;14.82;;;6.40;;
50781;SDS011;36749;37.428;-121.972;2022-07-10T11:51:42;16.73;;;6.22;;
50781;SDS011;36749;37.428;-121.972;2022-07-10T11:54:11;18.00;;;6.57;;
50781;SDS011;36749;37.428;-121.972;2022-07-10T11:56:42;17.92;;;6.93;;
50781;SDS011;36749;37.428;-121.972;2022-07-10T11:59:12;22.02;;;6.90;;
50781;SDS011;36749;37.428;-121.972;2022-07-10T12:01:46;19.27;;;7.07;;
50781;SDS011;36749;37.428;-121.972;2022-07-10T12:04:18;23.80;;;7.05;;
50781;SDS011;36749;37.428;-121.972;2022-07-10T12:06:49;19.92;;;6.57;;
50781;SDS011;36749;37.428;-121.972;2022-07-10T12:09:18;17.55;;;7.43;;
50781;SDS011;36749;37.428;-121.972;2022-07-10T12:12:01;18.75;;;6.63;;
50781;SDS011;36749;37.428;-121.972;2022-07-10T12:14:29;16.08;;;5.57;;
50781;SDS011;36749;37.428;-121.972;2022-07-10T12:16:55;17.83;;;7.63;;
50781;SDS011;36749;37.428;-121.972;2022-07-10T12:19:27;16.02;;;6.00;;
50781;SDS011;36749;37.428;-121.972;2022-07-10T12:21:56;21.52;;;7.97;;
50781;SDS011;36749;37.428;-121.972;2022-07-10T12:24:24;18.50;;;7.43;;
50781;SDS011;36749;37.428;-121.972;2022-07-10T12:26:51;16.70;;;6.00;;
50781;SDS011;36749;37.428;-121.972;2022-07-10T12:29:19;26.77;;;7.07;;
50781;SDS011;36749;37.428;-121.972;2022-07-10T12:31:47;19.00;;;7.07;;
50781;SDS011;36749;37.428;-121.972;2022-07-10T12:34:14;20.67;;;7.00;;
50781;SDS011;36749;37.428;-121.972;2022-07-10T12:39:19;17.67;;;7.25;;
50781;SDS011;36749;37.428;-121.972;2022-07-10T12:41:53;20.55;;;7.13;;
50781;SDS011;36749;37.428;-121.972;2022-07-10T12:44:41;14.43;;;7.07;;
50781;SDS011;36749;37.428;-121.972;2022-07-10T12:47:15;18.65;;;7.70;;
50781;SDS011;36749;37.428;-121.972;2022-07-10T12:49:55;16.73;;;7.32;;
50781;SDS011;36749;37.428;-121.972;2022-07-10T12:52:27;18.83;;;6.75;;
50781;SDS011;36749;37.428;-121.972;2022-07-10T12:55:07;24.15;;;6.93;;
50781;SDS011;36749;37.428;-121.972;2022-07-10T13:00:18;19.52;;;6.68;;
50781;SDS011;36749;37.428;-121.972;2022-07-10T13:02:49;20.92;;;7.13;;
50781;SDS011;36749;37.428;-121.972;2022-07-10T13:05:25;23.63;;;7.50;;
50781;SDS011;36749;37.428;-121.972;2022-07-10T13:07:52;16.27;;;7.57;;
50781;SDS011;36749;37.428;-121.972;2022-07-10T13:10:18;22.60;;;6.88;;
50781;SDS011;36749;37.428;-121.972;2022-07-10T13:12:45;16.88;;;7.05;;
50781;SDS011;36749;37.428;-121.972;2022-07-10T13:15:11;15.50;;;6.90;;
50781;SDS011;36749;37.428;-121.972;2022-07-10T13:17:44;20.50;;;7.28;;
50781;SDS011;36749;37.428;-121.972;2022-07-10T13:20:10;19.92;;;7.70;;
50781;SDS011;36749;37.428;-121.972;2022-07-10T13:22:36;15.88;;;7.28;;
50781;SDS011;36749;37.428;-121.972;2022-07-10T13:25:02;17.55;;;7.05;;
50781;SDS011;36749;37.428;-121.972;2022-07-10T13:27:29;14.50;;;6.53;;
50781;SDS011;36749;37.428;-121.972;2022-07-10T13:29:56;18.05;;;7.07;;
50781;SDS011;36749;37.428;-121.972;2022-07-10T13:32:22;21.17;;;7.43;;
50781;SDS011;36749;37.428;-121.972;2022-07-10T13:34:48;19.90;;;6.95;;
50781;SDS011;36749;37.428;-121.972;2022-07-10T13:37:14;16.80;;;7.22;;
50781;SDS011;36749;37.428;-121.972;2022-07-10T13:39:40;14.18;;;6.57;;
50781;SDS011;36749;37.428;-121.972;2022-07-10T13:42:07;13.05;;;5.68;;
50781;SDS011;36749;37.428;-121.972;2022-07-10T13:44:33;12.38;;;5.65;;
50781;SDS011;36749;37.428;-121.972;2022-07-10T13:46:59;12.70;;;5.90;;
50781;SDS011;36749;37.428;-121.972;2022-07-10T13:49:25;14.05;;;5.97;;
50781;SDS011;36749;37.428;-121.972;2022-07-10T13:51:52;11.98;;;5.82;;
50781;SDS011;36749;37.428;-121.972;2022-07-10T13:54:18;12.23;;;6.15;;
50781;SDS011;36749;37.428;-121.972;2022-07-10T13:56:45;15.30;;;6.00;;
50781;SDS011;36749;37.428;-121.972;2022-07-10T13:59:11;12.35;;;6.00;;
50781;SDS011;36749;37.428;-121.972;2022-07-10T14:01:37;13.13;;;5.32;;
50781;SDS011;36749;37.428;-121.972;2022-07-10T14:04:03;14.15;;;6.35;;
50781;SDS011;36749;37.428;-121.972;2022-07-10T14:06:30;16.35;;;6.63;;
50781;SDS011;36749;37.428;-121.972;2022-07-10T14:08:56;15.45;;;6.72;;
50781;SDS011;36749;37.428;-121.972;2022-07-10T14:11:22;13.13;;;6.20;;
50781;SDS011;36749;37.428;-121.972;2022-07-10T14:13:49;17.33;;;6.95;;
50781;SDS011;36749;37.428;-121.972;2022-07-10T14:16:15;16.45;;;6.32;;
50781;SDS011;36749;37.428;-121.972;2022-07-10T14:18:41;17.42;;;6.30;;
50781;SDS011;36749;37.428;-121.972;2022-07-10T14:21:10;16.92;;;5.97;;
50781;SDS011;36749;37.428;-121.972;2022-07-10T14:23:39;12.98;;;6.28;;
50781;SDS011;36749;37.428;-121.972;2022-07-10T14:26:09;14.00;;;6.13;;
50781;SDS011;36749;37.428;-121.972;2022-07-10T14:28:37;12.65;;;6.47;;
50781;SDS011;36749;37.428;-121.972;2022-07-10T14:31:03;15.90;;;6.10;;
50781;SDS011;36749;37.428;-121.972;2022-07-10T14:33:34;18.83;;;7.25;;
50781;SDS011;36749;37.428;-121.972;2022-07-10T14:36:00;15.38;;;6.40;;
50781;SDS011;36749;37.428;-121.972;2022-07-10T14:38:27;16.70;;;6.43;;